sensor_id;sensor_type;location;lat;lon;timestamp;P1;durP1;ratioP1;P2;durP2;ratioP2
12760;SDS011;6444;49.742;6.114;2023-03-01T00:00:41;15.73;;;9.23;;
12760;SDS011;6444;49.742;6.114;2023-03-01T00:03:07;16.27;;;9.30;;
12760;SDS011;6444;49.742;6.114;2023-03-01T00:05:34;11.53;;;8.73;;
12760;SDS011;6444;49.742;6.114;2023-03-01T00:08:01;12.23;;;8.80;;
12760;SDS011;6444;49.742;6.114;2023-03-01T00:10:28;12.17;;;8.23;;
12760;SDS011;6444;49.742;6.114;2023-03-01T00:12:55;9.47;;;8.00;;
12760;SDS011;6444;49.742;6.114;2023-03-01T00:15:21;12.90;;;8.43;;
12760;SDS011;6444;49.742;6.114;2023-03-01T00:17:48;12.43;;;8.33;;
12760;SDS011;6444;49.742;6.114;2023-03-01T00:20:15;14.10;;;8.40;;
12760;SDS011;6444;49.742;6.114;2023-03-01T00:22:41;13.93;;;8.70;;
12760;SDS011;6444;49.742;6.114;2023-03-01T00:25:09;12.20;;;8.50;;
12760;SDS011;6444;49.742;6.114;2023-03-01T00:27:35;12.03;;;8.57;;
12760;SDS011;6444;49.742;6.114;2023-03-01T00:30:02;10.77;;;7.90;;
12760;SDS011;6444;49.742;6.114;2023-03-01T00:32:28;16.48;;;13.60;;
12760;SDS011;6444;49.742;6.114;2023-03-01T00:34:55;14.43;;;10.43;;
12760;SDS011;6444;49.742;6.114;2023-03-01T00:37:22;15.10;;;9.47;;
12760;SDS011;6444;49.742;6.114;2023-03-01T00:39:49;13.50;;;9.33;;
12760;SDS011;6444;49.742;6.114;2023-03-01T00:42:16;12.40;;;8.77;;
12760;SDS011;6444;49.742;6.114;2023-03-01T00:44:42;13.70;;;9.10;;
12760;SDS011;6444;49.742;6.114;2023-03-01T00:47:09;11.23;;;7.83;;
12760;SDS011;6444;49.742;6.114;2023-03-01T00:49:36;11.57;;;8.00;;
12760;SDS011;6444;49.742;6.114;2023-03-01T00:52:03;13.93;;;8.47;;
12760;SDS011;6444;49.742;6.114;2023-03-01T00:54:30;13.17;;;8.73;;
12760;SDS011;6444;49.742;6.114;2023-03-01T00:56:56;13.50;;;8.43;;
12760;SDS011;6444;49.742;6.114;2023-03-01T00:59:23;14.20;;;8.90;;
12760;SDS011;6444;49.742;6.114;2023-03-01T01:01:50;12.33;;;8.73;;
12760;SDS011;6444;49.742;6.114;2023-03-01T01:04:16;11.93;;;8.17;;
12760;SDS011;6444;49.742;6.114;2023-03-01T01:06:46;12.63;;;8.70;;
12760;SDS011;6444;49.742;6.114;2023-03-01T01:09:15;13.80;;;8.20;;
12760;SDS011;6444;49.742;6.114;2023-03-01T01:11:40;10.83;;;8.37;;
12760;SDS011;6444;49.742;6.114;2023-03-01T01:14:06;21.48;;;15.20;;
12760;SDS011;6444;49.742;6.114;2023-03-01T01:16:33;16.00;;;10.33;;
12760;SDS011;6444;49.742;6.114;2023-03-01T01:18:59;15.37;;;9.63;;
12760;SDS011;6444;49.742;6.114;2023-03-01T01:21:26;18.23;;;13.88;;
12760;SDS011;6444;49.742;6.114;2023-03-01T01:23:53;15.37;;;10.73;;
12760;SDS011;6444;49.742;6.114;2023-03-01T01:26:20;13.80;;;9.47;;
12760;SDS011;6444;49.742;6.114;2023-03-01T01:28:46;15.53;;;9.37;;
12760;SDS011;6444;49.742;6.114;2023-03-01T01:31:13;14.23;;;9.60;;
12760;SDS011;6444;49.742;6.114;2023-03-01T01:33:39;13.07;;;9.40;;
12760;SDS011;6444;49.742;6.114;2023-03-01T01:36:06;19.08;;;14.57;;
12760;SDS011;6444;49.742;6.114;2023-03-01T01:38:33;15.00;;;10.50;;
12760;SDS011;6444;49.742;6.114;2023-03-01T01:40:59;16.97;;;10.37;;
12760;SDS011;6444;49.742;6.114;2023-03-01T01:43:27;11.53;;;8.73;;
12760;SDS011;6444;49.742;6.114;2023-03-01T01:45:55;20.17;;;15.30;;
12760;SDS011;6444;49.742;6.114;2023-03-01T01:48:22;19.20;;;15.40;;
12760;SDS011;6444;49.742;6.114;2023-03-01T01:50:58;15.43;;;11.40;;
12760;SDS011;6444;49.742;6.114;2023-03-01T01:53:24;15.13;;;9.87;;
12760;SDS011;6444;49.742;6.114;2023-03-01T01:55:52;15.40;;;10.33;;
12760;SDS011;6444;49.742;6.114;2023-03-01T01:58:20;15.67;;;9.83;;
12760;SDS011;6444;49.742;6.114;2023-03-01T02:00:50;13.73;;;8.90;;
12760;SDS011;6444;49.742;6.114;2023-03-01T02:03:18;14.77;;;9.33;;
12760;SDS011;6444;49.742;6.114;2023-03-01T02:08:16;12.13;;;8.97;;
12760;SDS011;6444;49.742;6.114;2023-03-01T02:10:43;15.57;;;8.97;;
12760;SDS011;6444;49.742;6.114;2023-03-01T02:13:10;13.63;;;9.53;;
12760;SDS011;6444;49.742;6.114;2023-03-01T02:15:37;14.87;;;9.63;;
12760;SDS011;6444;49.742;6.114;2023-03-01T02:18:03;15.13;;;9.13;;
12760;SDS011;6444;49.742;6.114;2023-03-01T02:23:02;16.63;;;9.77;;
12760;SDS011;6444;49.742;6.114;2023-03-01T02:30:43;14.13;;;9.27;;
12760;SDS011;6444;49.742;6.114;2023-03-01T02:33:28;17.20;;;9.30;;
12760;SDS011;6444;49.742;6.114;2023-03-01T02:35:54;13.67;;;9.33;;
12760;SDS011;6444;49.742;6.114;2023-03-01T02:38:21;13.07;;;9.57;;
12760;SDS011;6444;49.742;6.114;2023-03-01T02:40:48;13.77;;;9.43;;
12760;SDS011;6444;49.742;6.114;2023-03-01T02:43:14;15.50;;;9.53;;
12760;SDS011;6444;49.742;6.114;2023-03-01T02:45:50;15.03;;;9.50;;
12760;SDS011;6444;49.742;6.114;2023-03-01T02:48:17;17.57;;;10.43;;
12760;SDS011;6444;49.742;6.114;2023-03-01T02:53:23;15.53;;;9.83;;
12760;SDS011;6444;49.742;6.114;2023-03-01T02:55:48;14.63;;;9.77;;
12760;SDS011;6444;49.742;6.114;2023-03-01T02:58:15;14.57;;;10.23;;
12760;SDS011;6444;49.742;6.114;2023-03-01T03:00:42;22.13;;;16.75;;
12760;SDS011;6444;49.742;6.114;2023-03-01T03:03:08;24.77;;;18.30;;
12760;SDS011;6444;49.742;6.114;2023-03-01T03:05:35;21.92;;;16.80;;
12760;SDS011;6444;49.742;6.114;2023-03-01T03:08:02;21.37;;;12.80;;
12760;SDS011;6444;49.742;6.114;2023-03-01T03:10:29;17.27;;;10.73;;
12760;SDS011;6444;49.742;6.114;2023-03-01T03:12:59;17.47;;;10.83;;
12760;SDS011;6444;49.742;6.114;2023-03-01T03:15:27;15.83;;;10.27;;
12760;SDS011;6444;49.742;6.114;2023-03-01T03:17:53;21.08;;;16.27;;
12760;SDS011;6444;49.742;6.114;2023-03-01T03:20:21;18.67;;;12.07;;
12760;SDS011;6444;49.742;6.114;2023-03-01T03:22:51;17.90;;;11.53;;
12760;SDS011;6444;49.742;6.114;2023-03-01T03:25:13;15.70;;;10.87;;
12760;SDS011;6444;49.742;6.114;2023-03-01T03:27:42;14.13;;;9.50;;
12760;SDS011;6444;49.742;6.114;2023-03-01T03:30:07;13.90;;;9.13;;
12760;SDS011;6444;49.742;6.114;2023-03-01T03:32:33;18.47;;;10.50;;
12760;SDS011;6444;49.742;6.114;2023-03-01T03:35:00;16.07;;;9.80;;
12760;SDS011;6444;49.742;6.114;2023-03-01T03:37:26;19.97;;;10.57;;
12760;SDS011;6444;49.742;6.114;2023-03-01T03:40:11;16.00;;;10.33;;
12760;SDS011;6444;49.742;6.114;2023-03-01T03:42:38;16.97;;;10.47;;
12760;SDS011;6444;49.742;6.114;2023-03-01T03:45:04;18.13;;;10.23;;
12760;SDS011;6444;49.742;6.114;2023-03-01T03:47:31;17.73;;;9.87;;
12760;SDS011;6444;49.742;6.114;2023-03-01T03:49:58;19.60;;;10.67;;
12760;SDS011;6444;49.742;6.114;2023-03-01T03:52:24;14.63;;;10.17;;
12760;SDS011;6444;49.742;6.114;2023-03-01T03:54:51;17.60;;;10.60;;
12760;SDS011;6444;49.742;6.114;2023-03-01T03:57:18;17.83;;;11.40;;
12760;SDS011;6444;49.742;6.114;2023-03-01T03:59:45;17.87;;;9.90;;
12760;SDS011;6444;49.742;6.114;2023-03-01T04:02:12;25.10;;;17.15;;
12760;SDS011;6444;49.742;6.114;2023-03-01T04:04:38;17.97;;;12.10;;
12760;SDS011;6444;49.742;6.114;2023-03-01T04:07:05;19.30;;;12.07;;
12760;SDS011;6444;49.742;6.114;2023-03-01T04:09:32;18.27;;;11.67;;
12760;SDS011;6444;49.742;6.114;2023-03-01T04:11:59;18.20;;;11.57;;
12760;SDS011;6444;49.742;6.114;2023-03-01T04:14:25;20.10;;;11.80;;
12760;SDS011;6444;49.742;6.114;2023-03-01T04:16:52;19.93;;;11.37;;
12760;SDS011;6444;49.742;6.114;2023-03-01T04:19:19;16.40;;;10.97;;
12760;SDS011;6444;49.742;6.114;2023-03-01T04:21:45;16.67;;;10.23;;
12760;SDS011;6444;49.742;6.114;2023-03-01T04:24:13;19.80;;;11.53;;
12760;SDS011;6444;49.742;6.114;2023-03-01T04:26:39;17.30;;;11.30;;
12760;SDS011;6444;49.742;6.114;2023-03-01T04:29:06;17.57;;;10.83;;
12760;SDS011;6444;49.742;6.114;2023-03-01T04:31:33;19.47;;;12.07;;
12760;SDS011;6444;49.742;6.114;2023-03-01T04:34:00;19.80;;;11.50;;
12760;SDS011;6444;49.742;6.114;2023-03-01T04:36:27;19.03;;;11.27;;
12760;SDS011;6444;49.742;6.114;2023-03-01T04:38:53;17.53;;;11.27;;
12760;SDS011;6444;49.742;6.114;2023-03-01T04:41:21;15.80;;;11.07;;
12760;SDS011;6444;49.742;6.114;2023-03-01T04:43:47;16.63;;;10.63;;
12760;SDS011;6444;49.742;6.114;2023-03-01T04:46:15;21.03;;;10.87;;
12760;SDS011;6444;49.742;6.114;2023-03-01T04:48:41;18.20;;;10.93;;
12760;SDS011;6444;49.742;6.114;2023-03-01T04:51:07;19.47;;;11.90;;
12760;SDS011;6444;49.742;6.114;2023-03-01T04:53:34;19.77;;;11.90;;
12760;SDS011;6444;49.742;6.114;2023-03-01T04:56:01;20.30;;;12.50;;
12760;SDS011;6444;49.742;6.114;2023-03-01T04:58:27;27.45;;;19.65;;
12760;SDS011;6444;49.742;6.114;2023-03-01T05:00:54;27.60;;;15.93;;
12760;SDS011;6444;49.742;6.114;2023-03-01T05:03:21;24.10;;;14.40;;
12760;SDS011;6444;49.742;6.114;2023-03-01T05:05:48;25.33;;;14.73;;
12760;SDS011;6444;49.742;6.114;2023-03-01T05:08:14;19.30;;;12.73;;
12760;SDS011;6444;49.742;6.114;2023-03-01T05:10:45;27.57;;;13.30;;
12760;SDS011;6444;49.742;6.114;2023-03-01T05:13:10;21.67;;;12.80;;
12760;SDS011;6444;49.742;6.114;2023-03-01T05:15:36;28.45;;;20.05;;
12760;SDS011;6444;49.742;6.114;2023-03-01T05:18:03;21.87;;;15.10;;
12760;SDS011;6444;49.742;6.114;2023-03-01T05:20:30;23.17;;;13.47;;
12760;SDS011;6444;49.742;6.114;2023-03-01T05:22:57;22.33;;;13.80;;
12760;SDS011;6444;49.742;6.114;2023-03-01T05:25:23;23.03;;;13.70;;
12760;SDS011;6444;49.742;6.114;2023-03-01T05:27:50;22.47;;;12.70;;
12760;SDS011;6444;49.742;6.114;2023-03-01T05:30:17;17.67;;;11.27;;
12760;SDS011;6444;49.742;6.114;2023-03-01T05:32:47;18.23;;;12.07;;
12760;SDS011;6444;49.742;6.114;2023-03-01T05:35:13;19.83;;;12.10;;
12760;SDS011;6444;49.742;6.114;2023-03-01T05:37:40;22.27;;;12.90;;
12760;SDS011;6444;49.742;6.114;2023-03-01T05:40:07;19.67;;;11.63;;
12760;SDS011;6444;49.742;6.114;2023-03-01T05:42:33;21.03;;;12.60;;
12760;SDS011;6444;49.742;6.114;2023-03-01T05:45:00;19.53;;;11.93;;
12760;SDS011;6444;49.742;6.114;2023-03-01T05:47:26;23.23;;;12.70;;
12760;SDS011;6444;49.742;6.114;2023-03-01T05:49:53;21.97;;;12.57;;
12760;SDS011;6444;49.742;6.114;2023-03-01T05:52:20;20.93;;;11.80;;
12760;SDS011;6444;49.742;6.114;2023-03-01T05:54:47;20.63;;;12.07;;
12760;SDS011;6444;49.742;6.114;2023-03-01T05:57:14;20.40;;;12.67;;
12760;SDS011;6444;49.742;6.114;2023-03-01T05:59:40;21.67;;;13.13;;
12760;SDS011;6444;49.742;6.114;2023-03-01T06:02:07;21.90;;;12.63;;
12760;SDS011;6444;49.742;6.114;2023-03-01T06:04:34;22.70;;;13.73;;
12760;SDS011;6444;49.742;6.114;2023-03-01T06:07:00;22.23;;;13.70;;
12760;SDS011;6444;49.742;6.114;2023-03-01T06:09:27;28.10;;;19.87;;
12760;SDS011;6444;49.742;6.114;2023-03-01T06:11:53;25.67;;;15.00;;
12760;SDS011;6444;49.742;6.114;2023-03-01T06:14:20;25.23;;;13.30;;
12760;SDS011;6444;49.742;6.114;2023-03-01T06:16:47;22.97;;;14.10;;
12760;SDS011;6444;49.742;6.114;2023-03-01T06:19:14;22.73;;;13.20;;
12760;SDS011;6444;49.742;6.114;2023-03-01T06:21:41;22.27;;;13.00;;
12760;SDS011;6444;49.742;6.114;2023-03-01T06:24:07;20.23;;;13.27;;
12760;SDS011;6444;49.742;6.114;2023-03-01T06:26:34;20.70;;;12.50;;
12760;SDS011;6444;49.742;6.114;2023-03-01T06:29:01;19.80;;;13.30;;
12760;SDS011;6444;49.742;6.114;2023-03-01T06:31:27;21.83;;;12.57;;
12760;SDS011;6444;49.742;6.114;2023-03-01T06:33:54;18.83;;;12.03;;
12760;SDS011;6444;49.742;6.114;2023-03-01T06:36:20;21.60;;;13.57;;
12760;SDS011;6444;49.742;6.114;2023-03-01T06:38:47;22.47;;;12.70;;
12760;SDS011;6444;49.742;6.114;2023-03-01T06:41:14;21.47;;;12.40;;
12760;SDS011;6444;49.742;6.114;2023-03-01T06:43:40;20.83;;;13.20;;
12760;SDS011;6444;49.742;6.114;2023-03-01T06:46:07;23.83;;;14.47;;
12760;SDS011;6444;49.742;6.114;2023-03-01T06:48:34;26.17;;;14.70;;
12760;SDS011;6444;49.742;6.114;2023-03-01T06:51:00;25.70;;;18.60;;
12760;SDS011;6444;49.742;6.114;2023-03-01T06:53:27;24.83;;;14.77;;
12760;SDS011;6444;49.742;6.114;2023-03-01T06:55:55;24.37;;;13.97;;
12760;SDS011;6444;49.742;6.114;2023-03-01T06:58:21;24.13;;;13.67;;
12760;SDS011;6444;49.742;6.114;2023-03-01T07:00:47;30.47;;;14.67;;
12760;SDS011;6444;49.742;6.114;2023-03-01T07:03:14;23.03;;;13.40;;
12760;SDS011;6444;49.742;6.114;2023-03-01T07:05:41;22.27;;;13.50;;
12760;SDS011;6444;49.742;6.114;2023-03-01T07:08:07;24.33;;;14.37;;
12760;SDS011;6444;49.742;6.114;2023-03-01T07:10:34;24.63;;;14.10;;
12760;SDS011;6444;49.742;6.114;2023-03-01T07:13:01;22.57;;;13.87;;
12760;SDS011;6444;49.742;6.114;2023-03-01T07:15:27;25.35;;;18.25;;
12760;SDS011;6444;49.742;6.114;2023-03-01T07:17:54;22.27;;;15.23;;
12760;SDS011;6444;49.742;6.114;2023-03-01T07:20:21;23.77;;;14.10;;
12760;SDS011;6444;49.742;6.114;2023-03-01T07:22:53;23.73;;;14.23;;
12760;SDS011;6444;49.742;6.114;2023-03-01T07:25:16;17.53;;;12.83;;
12760;SDS011;6444;49.742;6.114;2023-03-01T07:27:43;20.83;;;16.55;;
12760;SDS011;6444;49.742;6.114;2023-03-01T07:30:10;20.60;;;14.20;;
12760;SDS011;6444;49.742;6.114;2023-03-01T07:32:36;20.50;;;13.47;;
12760;SDS011;6444;49.742;6.114;2023-03-01T07:35:03;20.37;;;13.57;;
12760;SDS011;6444;49.742;6.114;2023-03-01T07:37:30;20.90;;;13.40;;
12760;SDS011;6444;49.742;6.114;2023-03-01T07:39:56;19.83;;;13.43;;
12760;SDS011;6444;49.742;6.114;2023-03-01T07:42:23;22.57;;;13.77;;
12760;SDS011;6444;49.742;6.114;2023-03-01T07:44:50;23.87;;;13.97;;
12760;SDS011;6444;49.742;6.114;2023-03-01T07:47:16;23.30;;;17.17;;
12760;SDS011;6444;49.742;6.114;2023-03-01T07:49:43;19.07;;;14.20;;
12760;SDS011;6444;49.742;6.114;2023-03-01T07:52:12;18.53;;;13.53;;
12760;SDS011;6444;49.742;6.114;2023-03-01T07:54:36;21.93;;;13.70;;
12760;SDS011;6444;49.742;6.114;2023-03-01T07:57:03;19.00;;;13.40;;
12760;SDS011;6444;49.742;6.114;2023-03-01T07:59:30;19.30;;;12.80;;
12760;SDS011;6444;49.742;6.114;2023-03-01T08:01:57;22.97;;;13.23;;
12760;SDS011;6444;49.742;6.114;2023-03-01T08:04:23;21.37;;;12.73;;
12760;SDS011;6444;49.742;6.114;2023-03-01T08:06:53;20.83;;;12.90;;
12760;SDS011;6444;49.742;6.114;2023-03-01T08:09:19;21.77;;;13.43;;
12760;SDS011;6444;49.742;6.114;2023-03-01T08:11:46;19.83;;;15.55;;
12760;SDS011;6444;49.742;6.114;2023-03-01T08:14:12;18.42;;;15.68;;
12760;SDS011;6444;49.742;6.114;2023-03-01T08:16:39;18.20;;;13.07;;
12760;SDS011;6444;49.742;6.114;2023-03-01T08:19:06;16.67;;;12.83;;
12760;SDS011;6444;49.742;6.114;2023-03-01T08:21:32;17.03;;;12.73;;
12760;SDS011;6444;49.742;6.114;2023-03-01T08:23:59;16.17;;;13.20;;
12760;SDS011;6444;49.742;6.114;2023-03-01T08:26:26;19.67;;;12.97;;
12760;SDS011;6444;49.742;6.114;2023-03-01T08:28:53;16.97;;;12.73;;
12760;SDS011;6444;49.742;6.114;2023-03-01T08:31:21;16.97;;;12.87;;
12760;SDS011;6444;49.742;6.114;2023-03-01T08:33:49;16.57;;;13.23;;
12760;SDS011;6444;49.742;6.114;2023-03-01T08:36:16;17.53;;;12.87;;
12760;SDS011;6444;49.742;6.114;2023-03-01T08:38:42;17.03;;;12.57;;
12760;SDS011;6444;49.742;6.114;2023-03-01T08:41:09;18.00;;;13.43;;
12760;SDS011;6444;49.742;6.114;2023-03-01T08:43:35;16.07;;;13.10;;
12760;SDS011;6444;49.742;6.114;2023-03-01T08:46:02;17.23;;;13.23;;
12760;SDS011;6444;49.742;6.114;2023-03-01T08:48:28;15.67;;;12.20;;
12760;SDS011;6444;49.742;6.114;2023-03-01T08:50:55;17.13;;;13.37;;
12760;SDS011;6444;49.742;6.114;2023-03-01T08:53:22;17.87;;;13.23;;
12760;SDS011;6444;49.742;6.114;2023-03-01T08:55:48;21.05;;;17.00;;
12760;SDS011;6444;49.742;6.114;2023-03-01T08:58:15;18.65;;;16.65;;
12760;SDS011;6444;49.742;6.114;2023-03-01T09:00:42;18.00;;;13.40;;
12760;SDS011;6444;49.742;6.114;2023-03-01T09:03:08;19.87;;;14.13;;
12760;SDS011;6444;49.742;6.114;2023-03-01T09:05:35;21.20;;;13.57;;
12760;SDS011;6444;49.742;6.114;2023-03-01T09:08:01;21.53;;;14.20;;
12760;SDS011;6444;49.742;6.114;2023-03-01T09:10:28;20.83;;;14.50;;
12760;SDS011;6444;49.742;6.114;2023-03-01T09:12:55;19.60;;;13.73;;
12760;SDS011;6444;49.742;6.114;2023-03-01T09:15:21;17.43;;;13.27;;
12760;SDS011;6444;49.742;6.114;2023-03-01T09:17:48;19.37;;;13.87;;
12760;SDS011;6444;49.742;6.114;2023-03-01T09:20:15;22.33;;;15.00;;
12760;SDS011;6444;49.742;6.114;2023-03-01T09:22:41;19.37;;;13.43;;
12760;SDS011;6444;49.742;6.114;2023-03-01T09:25:08;18.67;;;13.97;;
12760;SDS011;6444;49.742;6.114;2023-03-01T09:27:35;19.00;;;13.87;;
12760;SDS011;6444;49.742;6.114;2023-03-01T09:30:01;17.63;;;12.93;;
12760;SDS011;6444;49.742;6.114;2023-03-01T09:32:29;20.70;;;14.23;;
12760;SDS011;6444;49.742;6.114;2023-03-01T09:34:54;23.65;;;17.27;;
12760;SDS011;6444;49.742;6.114;2023-03-01T09:37:27;19.97;;;14.83;;
12760;SDS011;6444;49.742;6.114;2023-03-01T09:39:54;18.85;;;16.25;;
12760;SDS011;6444;49.742;6.114;2023-03-01T09:42:21;21.20;;;15.37;;
12760;SDS011;6444;49.742;6.114;2023-03-01T09:45:00;19.95;;;16.60;;
12760;SDS011;6444;49.742;6.114;2023-03-01T09:47:28;21.97;;;15.30;;
12760;SDS011;6444;49.742;6.114;2023-03-01T09:49:58;19.47;;;13.20;;
12760;SDS011;6444;49.742;6.114;2023-03-01T09:55:08;20.77;;;12.63;;
12760;SDS011;6444;49.742;6.114;2023-03-01T10:05:27;18.47;;;13.57;;
12760;SDS011;6444;49.742;6.114;2023-03-01T10:08:13;17.47;;;12.13;;
12760;SDS011;6444;49.742;6.114;2023-03-01T10:10:38;19.33;;;16.52;;
12760;SDS011;6444;49.742;6.114;2023-03-01T10:13:10;17.23;;;14.30;;
12760;SDS011;6444;49.742;6.114;2023-03-01T10:15:35;17.43;;;13.90;;
12760;SDS011;6444;49.742;6.114;2023-03-01T10:18:09;21.67;;;15.30;;
12760;SDS011;6444;49.742;6.114;2023-03-01T10:20:37;18.60;;;13.97;;
12760;SDS011;6444;49.742;6.114;2023-03-01T10:23:00;17.77;;;14.17;;
12760;SDS011;6444;49.742;6.114;2023-03-01T10:25:35;17.33;;;12.63;;
12760;SDS011;6444;49.742;6.114;2023-03-01T10:28:25;18.23;;;13.38;;
12760;SDS011;6444;49.742;6.114;2023-03-01T10:30:49;17.52;;;13.77;;
12760;SDS011;6444;49.742;6.114;2023-03-01T10:33:29;18.10;;;13.27;;
12760;SDS011;6444;49.742;6.114;2023-03-01T10:35:54;18.03;;;16.20;;
12760;SDS011;6444;49.742;6.114;2023-03-01T10:38:21;17.48;;;14.07;;
12760;SDS011;6444;49.742;6.114;2023-03-01T10:40:54;16.33;;;14.38;;
12760;SDS011;6444;49.742;6.114;2023-03-01T10:43:20;18.55;;;14.13;;
12760;SDS011;6444;49.742;6.114;2023-03-01T10:45:47;16.30;;;12.20;;
12760;SDS011;6444;49.742;6.114;2023-03-01T10:50:46;16.85;;;14.18;;
12760;SDS011;6444;49.742;6.114;2023-03-01T10:53:26;18.33;;;14.40;;
12760;SDS011;6444;49.742;6.114;2023-03-01T10:56:01;24.00;;;15.13;;
12760;SDS011;6444;49.742;6.114;2023-03-01T10:58:33;16.62;;;14.20;;
12760;SDS011;6444;49.742;6.114;2023-03-01T11:03:43;17.98;;;16.00;;
12760;SDS011;6444;49.742;6.114;2023-03-01T11:08:38;17.42;;;14.18;;
12760;SDS011;6444;49.742;6.114;2023-03-01T11:13:46;14.55;;;12.37;;
12760;SDS011;6444;49.742;6.114;2023-03-01T11:16:10;18.87;;;13.25;;
12760;SDS011;6444;49.742;6.114;2023-03-01T11:18:35;18.12;;;16.23;;
12760;SDS011;6444;49.742;6.114;2023-03-01T11:21:01;17.02;;;14.87;;
12760;SDS011;6444;49.742;6.114;2023-03-01T11:23:28;17.67;;;13.43;;
12760;SDS011;6444;49.742;6.114;2023-03-01T11:25:56;15.67;;;10.20;;
12760;SDS011;6444;49.742;6.114;2023-03-01T11:28:22;17.83;;;13.87;;
12760;SDS011;6444;49.742;6.114;2023-03-01T11:30:53;21.07;;;13.47;;
12760;SDS011;6444;49.742;6.114;2023-03-01T11:33:44;18.10;;;13.50;;
12760;SDS011;6444;49.742;6.114;2023-03-01T11:36:28;19.60;;;14.23;;
12760;SDS011;6444;49.742;6.114;2023-03-01T11:39:17;22.35;;;17.67;;
12760;SDS011;6444;49.742;6.114;2023-03-01T11:41:45;19.47;;;14.90;;
12760;SDS011;6444;49.742;6.114;2023-03-01T11:44:14;20.40;;;16.50;;
12760;SDS011;6444;49.742;6.114;2023-03-01T11:46:52;19.65;;;17.50;;
12760;SDS011;6444;49.742;6.114;2023-03-01T11:49:28;18.10;;;13.17;;
12760;SDS011;6444;49.742;6.114;2023-03-01T12:00:21;18.90;;;16.52;;
12760;SDS011;6444;49.742;6.114;2023-03-01T12:05:50;19.53;;;14.43;;
12760;SDS011;6444;49.742;6.114;2023-03-01T12:11:12;18.43;;;12.90;;
12760;SDS011;6444;49.742;6.114;2023-03-01T12:21:45;16.80;;;12.57;;
12760;SDS011;6444;49.742;6.114;2023-03-01T12:24:36;20.70;;;14.10;;
12760;SDS011;6444;49.742;6.114;2023-03-01T12:27:18;17.27;;;13.43;;
12760;SDS011;6444;49.742;6.114;2023-03-01T12:29:47;22.57;;;13.70;;
12760;SDS011;6444;49.742;6.114;2023-03-01T12:37:40;18.57;;;13.10;;
12760;SDS011;6444;49.742;6.114;2023-03-01T12:45:35;16.77;;;12.17;;
12760;SDS011;6444;49.742;6.114;2023-03-01T12:50:51;18.53;;;13.53;;
12760;SDS011;6444;49.742;6.114;2023-03-01T12:53:24;19.77;;;13.27;;
12760;SDS011;6444;49.742;6.114;2023-03-01T12:55:50;17.93;;;13.80;;
12760;SDS011;6444;49.742;6.114;2023-03-01T12:58:24;19.93;;;13.87;;
12760;SDS011;6444;49.742;6.114;2023-03-01T13:01:04;20.63;;;14.20;;
12760;SDS011;6444;49.742;6.114;2023-03-01T13:06:29;18.80;;;14.07;;
12760;SDS011;6444;49.742;6.114;2023-03-01T13:11:42;16.07;;;11.80;;
12760;SDS011;6444;49.742;6.114;2023-03-01T13:14:52;18.20;;;13.10;;
12760;SDS011;6444;49.742;6.114;2023-03-01T13:19:15;17.73;;;12.80;;
12760;SDS011;6444;49.742;6.114;2023-03-01T13:21:46;18.23;;;13.13;;
12760;SDS011;6444;49.742;6.114;2023-03-01T13:24:25;18.43;;;13.20;;
12760;SDS011;6444;49.742;6.114;2023-03-01T13:35:00;17.90;;;12.20;;
12760;SDS011;6444;49.742;6.114;2023-03-01T13:37:26;20.40;;;15.68;;
12760;SDS011;6444;49.742;6.114;2023-03-01T13:39:55;17.07;;;13.30;;
12760;SDS011;6444;49.742;6.114;2023-03-01T13:42:34;18.47;;;13.70;;
12760;SDS011;6444;49.742;6.114;2023-03-01T13:45:00;19.37;;;13.63;;
12760;SDS011;6444;49.742;6.114;2023-03-01T13:47:26;17.20;;;13.03;;
12760;SDS011;6444;49.742;6.114;2023-03-01T13:49:57;18.67;;;13.57;;
12760;SDS011;6444;49.742;6.114;2023-03-01T13:55:03;17.27;;;12.63;;
12760;SDS011;6444;49.742;6.114;2023-03-01T13:57:30;19.20;;;12.50;;
12760;SDS011;6444;49.742;6.114;2023-03-01T13:59:55;15.93;;;11.73;;
12760;SDS011;6444;49.742;6.114;2023-03-01T14:02:21;18.60;;;12.47;;
12760;SDS011;6444;49.742;6.114;2023-03-01T14:04:58;18.23;;;13.23;;
12760;SDS011;6444;49.742;6.114;2023-03-01T14:07:24;16.70;;;12.40;;
12760;SDS011;6444;49.742;6.114;2023-03-01T14:09:52;18.37;;;13.20;;
12760;SDS011;6444;49.742;6.114;2023-03-01T14:20:18;17.47;;;12.93;;
12760;SDS011;6444;49.742;6.114;2023-03-01T14:22:57;18.17;;;11.97;;
12760;SDS011;6444;49.742;6.114;2023-03-01T14:25:23;16.73;;;11.37;;
12760;SDS011;6444;49.742;6.114;2023-03-01T14:27:59;15.07;;;11.50;;
12760;SDS011;6444;49.742;6.114;2023-03-01T14:30:32;13.67;;;11.27;;
12760;SDS011;6444;49.742;6.114;2023-03-01T14:33:02;15.73;;;12.20;;
12760;SDS011;6444;49.742;6.114;2023-03-01T14:35:28;16.80;;;13.68;;
12760;SDS011;6444;49.742;6.114;2023-03-01T14:37:54;15.53;;;12.30;;
12760;SDS011;6444;49.742;6.114;2023-03-01T14:42:50;15.87;;;11.33;;
12760;SDS011;6444;49.742;6.114;2023-03-01T14:45:17;15.40;;;11.93;;
12760;SDS011;6444;49.742;6.114;2023-03-01T14:47:44;16.03;;;11.63;;
12760;SDS011;6444;49.742;6.114;2023-03-01T14:50:30;16.93;;;11.77;;
12760;SDS011;6444;49.742;6.114;2023-03-01T14:52:57;15.93;;;11.03;;
12760;SDS011;6444;49.742;6.114;2023-03-01T14:55:38;15.97;;;11.67;;
12760;SDS011;6444;49.742;6.114;2023-03-01T14:58:04;15.00;;;10.90;;
12760;SDS011;6444;49.742;6.114;2023-03-01T15:00:30;13.03;;;8.73;;
12760;SDS011;6444;49.742;6.114;2023-03-01T15:02:58;13.10;;;9.50;;
12760;SDS011;6444;49.742;6.114;2023-03-01T15:05:31;15.37;;;11.10;;
12760;SDS011;6444;49.742;6.114;2023-03-01T15:08:00;15.93;;;11.57;;
12760;SDS011;6444;49.742;6.114;2023-03-01T15:10:27;15.80;;;11.90;;
12760;SDS011;6444;49.742;6.114;2023-03-01T15:13:12;15.17;;;11.40;;
12760;SDS011;6444;49.742;6.114;2023-03-01T15:15:38;15.77;;;11.53;;
12760;SDS011;6444;49.742;6.114;2023-03-01T15:18:06;17.70;;;12.00;;
12760;SDS011;6444;49.742;6.114;2023-03-01T15:20:49;14.77;;;11.10;;
12760;SDS011;6444;49.742;6.114;2023-03-01T15:23:23;16.93;;;11.73;;
12760;SDS011;6444;49.742;6.114;2023-03-01T15:25:48;17.30;;;12.40;;
12760;SDS011;6444;49.742;6.114;2023-03-01T15:28:18;15.80;;;11.47;;
12760;SDS011;6444;49.742;6.114;2023-03-01T15:30:42;14.00;;;9.50;;
12760;SDS011;6444;49.742;6.114;2023-03-01T15:35:50;15.07;;;11.07;;
12760;SDS011;6444;49.742;6.114;2023-03-01T15:38:27;14.77;;;11.37;;
12760;SDS011;6444;49.742;6.114;2023-03-01T15:40:52;15.90;;;11.63;;
12760;SDS011;6444;49.742;6.114;2023-03-01T15:48:46;16.77;;;9.63;;
12760;SDS011;6444;49.742;6.114;2023-03-01T15:51:12;14.83;;;11.50;;
12760;SDS011;6444;49.742;6.114;2023-03-01T15:53:39;14.93;;;11.03;;
12760;SDS011;6444;49.742;6.114;2023-03-01T15:56:06;13.70;;;9.07;;
12760;SDS011;6444;49.742;6.114;2023-03-01T15:58:33;14.07;;;9.97;;
12760;SDS011;6444;49.742;6.114;2023-03-01T16:01:00;15.53;;;10.07;;
12760;SDS011;6444;49.742;6.114;2023-03-01T16:03:27;14.10;;;10.47;;
12760;SDS011;6444;49.742;6.114;2023-03-01T16:05:53;14.50;;;10.93;;
12760;SDS011;6444;49.742;6.114;2023-03-01T16:08:20;15.03;;;11.17;;
12760;SDS011;6444;49.742;6.114;2023-03-01T16:10:47;15.00;;;10.33;;
12760;SDS011;6444;49.742;6.114;2023-03-01T16:13:13;18.90;;;10.87;;
12760;SDS011;6444;49.742;6.114;2023-03-01T16:15:40;11.40;;;8.80;;
12760;SDS011;6444;49.742;6.114;2023-03-01T16:18:06;13.63;;;10.10;;
12760;SDS011;6444;49.742;6.114;2023-03-01T16:20:33;15.50;;;10.67;;
12760;SDS011;6444;49.742;6.114;2023-03-01T16:23:01;14.27;;;12.07;;
12760;SDS011;6444;49.742;6.114;2023-03-01T16:25:27;13.70;;;11.70;;
12760;SDS011;6444;49.742;6.114;2023-03-01T16:27:53;13.47;;;9.40;;